Time;durP1;ratioP1;P1;durP2;ratioP2;P2;SDS_P1;SDS_P2;PMS_P1;PMS_P2;Temp;Humidity;BMP_temperature;BMP_pressure;BME280_temperature;BME280_humidity;BME280_pressure;Samples;Min_cycle;Max_cycle;Signal;HPM_P1;HPM_P2
2021/12/19 00:00:58;;;;;;;;;38.00;28.33;;;;;10.50;64.10;102759.16;6194236;22;45933;-85
2021/12/19 00:11:08;;;;;;;;;33.67;27.67;;;;;10.25;64.75;102739.34;6222599;22;45230;-84
2021/12/19 00:13:34;;;;;;;;;31.33;27.67;;;;;10.27;64.77;102723.47;6194138;22;45331;-84
2021/12/19 00:15:59;;;;;;;;;43.67;35.33;;;;;10.29;64.80;102719.16;6194180;22;45621;-84
2021/12/19 00:18:25;;;;;;;;;42.67;38.33;;;;;10.40;64.71;102721.50;6194235;22;47044;-84
2021/12/19 00:20:50;;;;;;;;;43.00;33.33;;;;;10.51;64.31;102708.69;6196031;22;45976;-85
2021/12/19 00:23:17;;;;;;;;;35.67;31.00;;;;;10.69;64.25;102711.28;6195899;22;45485;-83
2021/12/19 00:25:43;;;;;;;;;32.33;29.33;;;;;10.63;64.22;102710.09;6194575;22;45722;-84
2021/12/19 00:28:15;;;;;;;;;29.67;26.00;;;;;10.55;64.06;102697.34;6194825;22;46986;-85
2021/12/19 00:30:41;;;;;;;;;41.00;33.67;;;;;10.61;64.07;102700.28;6194693;22;45916;-85
2021/12/19 00:33:13;;;;;;;;;40.67;32.00;;;;;10.90;63.63;102707.75;6221691;22;45421;-85
2021/12/19 00:39:00;;;;;;;;;40.00;35.00;;;;;10.50;64.28;102690.00;6223144;22;45277;-84
2021/12/19 00:41:25;;;;;;;;;39.67;30.33;;;;;10.58;64.43;102691.25;6195735;22;45331;-85
2021/12/19 00:43:55;;;;;;;;;39.67;36.00;;;;;10.63;64.06;102694.16;6194664;22;45275;-85
2021/12/19 00:46:24;;;;;;;;;42.33;36.67;;;;;10.55;64.21;102678.72;6221768;22;45413;-85
2021/12/19 00:48:55;;;;;;;;;40.67;33.00;;;;;10.79;64.17;102686.91;6221138;22;45706;-84
2021/12/19 00:51:24;;;;;;;;;41.67;33.00;;;;;10.65;64.26;102679.16;6196233;22;45454;-85
2021/12/19 00:53:51;;;;;;;;;44.00;26.67;;;;;10.67;64.41;102696.09;6222983;22;45606;-84
2021/12/19 00:56:17;;;;;;;;;31.67;28.33;;;;;10.56;64.25;102684.94;6222135;22;45278;-84
2021/12/19 00:58:43;;;;;;;;;31.00;27.67;;;;;10.63;63.95;102684.41;6195469;22;46552;-84
2021/12/19 01:01:11;;;;;;;;;36.00;30.00;;;;;10.60;64.33;102681.59;6224006;22;45866;-84
2021/12/19 01:03:36;;;;;;;;;29.00;27.67;;;;;10.48;64.19;102673.94;6194501;22;45359;-84
2021/12/19 01:06:03;;;;;;;;;36.33;29.00;;;;;10.57;64.20;102687.69;6192922;22;45731;-84
2021/12/19 01:08:29;;;;;;;;;34.67;29.67;;;;;10.50;64.33;102676.69;6220968;22;45441;-85
2021/12/19 01:10:54;;;;;;;;;34.67;30.67;;;;;10.55;64.05;102683.16;6194040;22;45352;-85
2021/12/19 01:16:42;;;;;;;;;35.67;29.33;;;;;10.50;64.26;102674.97;6223915;22;45870;-85
2021/12/19 01:19:07;;;;;;;;;36.67;33.33;;;;;10.38;64.07;102666.41;6195586;22;46575;-84
2021/12/19 01:21:33;;;;;;;;;33.67;29.33;;;;;10.39;64.55;102670.91;6194431;22;45395;-84
2021/12/19 01:23:58;;;;;;;;;34.33;29.00;;;;;10.43;64.38;102667.53;6196577;22;45363;-84
2021/12/19 01:26:23;;;;;;;;;33.67;25.33;;;;;10.49;64.69;102667.81;6223072;22;45341;-85
2021/12/19 01:28:49;;;;;;;;;29.67;25.33;;;;;10.54;64.56;102666.28;6194065;22;46686;-84
2021/12/19 01:31:15;;;;;;;;;38.00;31.00;;;;;10.54;64.31;102674.25;6221323;22;45446;-84
2021/12/19 01:33:40;;;;;;;;;37.67;29.00;;;;;10.37;64.70;102668.16;6220009;22;45488;-85
2021/12/19 01:36:07;;;;;;;;;34.67;29.67;;;;;10.32;64.76;102658.13;6195289;22;45327;-85
2021/12/19 01:38:33;;;;;;;;;21.00;19.67;;;;;10.48;64.75;102681.03;6194868;22;47308;-85
2021/12/19 01:40:59;;;;;;;;;31.00;28.67;;;;;10.43;64.61;102671.94;6195141;22;45672;-85
2021/12/19 01:43:25;;;;;;;;;24.67;20.67;;;;;10.55;64.49;102672.50;6222381;22;45388;-84
2021/12/19 01:45:52;;;;;;;;;27.67;22.33;;;;;10.66;64.37;102671.22;6196369;22;45347;-86
2021/12/19 01:48:19;;;;;;;;;26.67;21.33;;;;;10.54;64.59;102665.34;6222320;22;45467;-84
2021/12/19 01:50:44;;;;;;;;;36.33;28.00;;;;;10.48;64.52;102659.75;6193633;22;45409;-85
2021/12/19 01:53:12;;;;;;;;;30.00;25.33;;;;;10.66;64.78;102671.22;6220612;22;45481;-85
2021/12/19 01:55:40;;;;;;;;;24.33;18.67;;;;;10.64;64.44;102672.00;6221022;22;45415;-85
2021/12/19 01:58:06;;;;;;;;;24.33;21.33;;;;;10.38;64.58;102654.03;6193065;22;47149;-85
2021/12/19 02:00:39;;;;;;;;;30.00;26.67;;;;;10.59;64.39;102651.41;6220855;22;45659;-85
2021/12/19 02:03:09;;;;;;;;;28.00;25.00;;;;;10.62;64.58;102658.63;6193967;22;45835;-84
2021/12/19 02:05:35;;;;;;;;;30.00;21.67;;;;;10.48;64.76;102655.34;6193760;22;44796;-84
2021/12/19 02:08:01;;;;;;;;;26.00;21.67;;;;;10.49;64.74;102659.81;6220864;22;45239;-84
2021/12/19 02:10:30;;;;;;;;;29.33;24.67;;;;;10.60;64.71;102658.56;6221320;22;45314;-84
2021/12/19 02:12:58;;;;;;;;;30.33;24.33;;;;;10.29;64.58;102615.44;6194189;22;45491;-84
2021/12/19 02:15:26;;;;;;;;;29.00;25.33;;;;;10.54;64.72;102645.00;6194389;22;45780;-84
2021/12/19 02:17:55;;;;;;;;;21.33;17.33;;;;;10.52;64.73;102636.03;6222974;22;46090;-84
2021/12/19 02:20:22;;;;;;;;;21.00;19.67;;;;;10.49;64.68;102641.22;6221718;22;45441;-84
2021/12/19 02:22:48;;;;;;;;;24.67;20.33;;;;;10.44;65.14;102648.06;6194320;22;45331;-84
2021/12/19 02:25:14;;;;;;;;;25.00;21.00;;;;;10.45;64.74;102638.34;6222552;22;45406;-84
2021/12/19 02:27:42;;;;;;;;;26.00;21.00;;;;;10.61;64.76;102625.78;6220875;22;45444;-84
2021/12/19 02:30:09;;;;;;;;;21.67;20.00;;;;;10.51;64.63;102639.53;6195486;22;44678;-85
2021/12/19 02:32:36;;;;;;;;;34.00;24.67;;;;;10.48;64.88;102638.47;6222639;22;45589;-86
2021/12/19 02:35:08;;;;;;;;;34.67;24.00;;;;;10.60;64.83;102631.97;6197625;22;44874;-86
2021/12/19 02:49:24;;;;;;;;;28.67;21.67;;;;;10.19;65.18;102625.63;6219910;22;45642;-84
2021/12/19 02:51:52;;;;;;;;;31.33;24.00;;;;;10.30;65.69;102623.53;6193730;22;45753;-84
2021/12/19 02:54:18;;;;;;;;;21.00;20.33;;;;;10.13;65.52;102629.78;6220632;22;45856;-84
2021/12/19 02:56:43;;;;;;;;;29.67;22.33;;;;;10.14;65.40;102626.25;6220987;22;45271;-85
2021/12/19 02:59:08;;;;;;;;;22.33;21.00;;;;;10.12;65.71;102617.28;6220826;22;45442;-84
2021/12/19 03:01:34;;;;;;;;;30.67;21.00;;;;;10.04;65.87;102616.97;6193987;22;45411;-84
2021/12/19 03:03:59;;;;;;;;;30.00;22.67;;;;;10.10;65.50;102618.97;6194491;22;45374;-85
2021/12/19 03:06:25;;;;;;;;;33.00;25.00;;;;;10.13;65.50;102616.47;6193494;22;45510;-84
2021/12/19 03:08:52;;;;;;;;;22.67;20.00;;;;;10.30;65.35;102611.94;6194230;22;47787;-84
2021/12/19 03:19:56;;;;;;;;;30.00;25.00;;;;;10.57;64.58;102599.88;6218826;22;45295;-84
2021/12/19 03:22:21;;;;;;;;;27.00;26.67;;;;;10.19;65.11;102582.19;6192291;22;45885;-84
2021/12/19 03:24:46;;;;;;;;;30.33;28.00;;;;;10.21;65.44;102577.84;6220400;22;45419;-85
2021/12/19 03:27:12;;;;;;;;;36.33;27.00;;;;;10.29;65.09;102591.50;6194424;22;45853;-84
2021/12/19 03:29:37;;;;;;;;;35.00;24.67;;;;;10.29;64.67;102594.16;6196090;22;47580;-84
2021/12/19 03:32:03;;;;;;;;;27.33;21.33;;;;;10.10;65.06;102588.00;6196263;22;45481;-84
2021/12/19 03:34:29;;;;;;;;;30.00;21.33;;;;;10.15;65.22;102602.41;6172857;23;45418;-84
2021/12/19 03:36:54;;;;;;;;;24.00;20.00;;;;;10.06;65.64;102603.72;6165746;23;45650;-85
2021/12/19 03:39:33;;;;;;;;;19.67;17.00;;;;;10.01;65.40;102606.19;6192236;23;45400;-84
2021/12/19 03:41:59;;;;;;;;;21.33;18.67;;;;;10.06;65.51;102602.00;6190800;23;45318;-85
2021/12/19 03:44:24;;;;;;;;;23.33;21.33;;;;;10.08;65.32;102594.06;6163887;23;45623;-86
2021/12/19 03:46:50;;;;;;;;;29.67;25.00;;;;;10.12;65.19;102599.63;6192157;23;45706;-85
2021/12/19 03:49:18;;;;;;;;;29.33;20.67;;;;;9.92;65.17;102571.22;6164142;23;46972;-86
2021/12/19 03:51:44;;;;;;;;;22.33;21.00;;;;;10.07;65.45;102598.47;6163733;23;45501;-85
2021/12/19 03:54:09;;;;;;;;;35.67;23.00;;;;;10.11;65.45;102600.44;6165029;23;45428;-84
2021/12/19 03:56:35;;;;;;;;;28.00;22.33;;;;;10.10;65.40;102601.31;6164466;23;45557;-85
2021/12/19 03:59:00;;;;;;;;;19.33;16.67;;;;;10.01;65.29;102587.56;6163498;23;47000;-84
2021/12/19 04:01:25;;;;;;;;;27.33;20.33;;;;;10.03;65.59;102604.50;6191931;23;45299;-85
2021/12/19 04:03:51;;;;;;;;;24.33;21.00;;;;;9.99;65.75;102611.41;6165314;23;45344;-84
2021/12/19 04:06:16;;;;;;;;;20.67;19.67;;;;;9.94;65.68;102601.44;6191181;23;45344;-84
2021/12/19 04:08:42;;;;;;;;;23.33;20.00;;;;;9.95;65.75;102598.81;6164042;23;46923;-85
2021/12/19 04:11:08;;;;;;;;;32.33;27.33;;;;;9.86;66.04;102582.47;6163613;23;45412;-85
2021/12/19 04:13:33;;;;;;;;;29.67;24.33;;;;;9.93;65.90;102589.88;6191039;23;45387;-84
2021/12/19 04:19:21;;;;;;;;;25.33;21.00;;;;;9.96;65.67;102578.50;6191215;23;45339;-85
2021/12/19 04:21:47;;;;;;;;;25.33;23.33;;;;;10.08;65.78;102595.00;6165044;23;45646;-83
2021/12/19 04:24:12;;;;;;;;;29.00;24.67;;;;;10.06;65.55;102575.41;6164032;23;45302;-85
2021/12/19 04:26:38;;;;;;;;;27.00;24.67;;;;;10.23;65.66;102584.16;6163008;23;45388;-84
2021/12/19 04:29:03;;;;;;;;;24.33;19.67;;;;;10.15;64.77;102559.88;6192123;23;45235;-85
2021/12/19 04:31:28;;;;;;;;;21.00;19.33;;;;;10.19;64.88;102567.13;6165297;23;45516;-85
2021/12/19 04:33:55;;;;;;;;;24.33;20.00;;;;;10.12;64.93;102575.69;6207635;22;45184;-85
2021/12/19 04:36:31;;;;;;;;;19.00;16.67;;;;;10.11;65.07;102573.84;6195193;22;45248;-85
2021/12/19 04:50:48;;;;;;;;;26.67;18.67;;;;;10.28;64.83;102568.38;6222503;22;45358;-85
2021/12/19 05:00:45;;;;;;;;;24.33;19.67;;;;;10.05;65.51;102549.66;6222137;22;45927;-85
2021/12/19 05:03:42;;;;;;;;;12.67;12.33;;;;;10.15;65.38;102543.91;6194627;22;45506;-85
2021/12/19 05:06:10;;;;;;;;;14.00;11.00;;;;;10.01;65.39;102555.69;6218489;22;45316;-85
2021/12/19 05:14:12;;;;;;;;;18.33;17.00;;;;;9.92;66.53;102547.31;6221424;22;45383;-85
2021/12/19 05:16:41;;;;;;;;;28.00;18.67;;;;;9.76;66.49;102543.94;6193367;22;45820;-84
2021/12/19 05:19:29;;;;;;;;;21.00;15.67;;;;;9.75;66.71;102547.41;6194853;22;45390;-84
2021/12/19 05:21:59;;;;;;;;;18.67;15.00;;;;;9.71;66.59;102540.13;6221410;22;45334;-84
2021/12/19 05:27:08;;;;;;;;;23.67;18.00;;;;;10.00;66.46;102548.56;6222146;22;45636;-84
2021/12/19 05:29:35;;;;;;;;;16.33;12.33;;;;;9.78;66.27;102539.59;6196680;22;45386;-85
2021/12/19 05:32:02;;;;;;;;;16.00;12.67;;;;;9.80;65.88;102550.31;6195346;22;48061;-85
2021/12/19 05:34:29;;;;;;;;;14.00;14.00;;;;;9.61;66.28;102540.53;6175372;23;45631;-85
2021/12/19 05:45:13;;;;;;;;;12.67;10.00;;;;;9.60;66.60;102552.91;6189129;23;45546;-84
2021/12/19 05:47:44;;;;;;;;;15.00;11.00;;;;;9.75;66.50;102542.09;6190320;23;45649;-85
2021/12/19 05:50:10;;;;;;;;;21.00;13.00;;;;;9.49;66.76;102537.31;6191656;23;45527;-84
2021/12/19 05:52:36;;;;;;;;;11.33;11.00;;;;;9.52;67.14;102537.47;6164473;23;47209;-84
2021/12/19 05:55:03;;;;;;;;;21.33;13.33;;;;;9.46;68.78;102538.09;6163636;23;45776;-84
2021/12/19 05:57:29;;;;;;;;;14.67;12.67;;;;;9.30;68.42;102540.84;6163823;23;45836;-84
2021/12/19 05:59:55;;;;;;;;;15.67;11.67;;;;;9.35;69.40;102536.66;6164739;23;45659;-85
2021/12/19 06:02:21;;;;;;;;;16.00;12.00;;;;;9.22;69.47;102545.78;6163852;23;47192;-85
2021/12/19 06:04:46;;;;;;;;;15.00;12.67;;;;;9.27;68.89;102552.25;6190343;23;45336;-85
2021/12/19 06:07:11;;;;;;;;;11.00;10.00;;;;;9.32;68.90;102555.09;6192145;23;45372;-84
2021/12/19 06:09:37;;;;;;;;;18.33;11.33;;;;;9.38;68.00;102537.72;6164545;23;45376;-85
2021/12/19 06:12:03;;;;;;;;;12.33;8.33;;;;;9.66;67.24;102532.81;6163595;23;47066;-85
2021/12/19 06:14:33;;;;;;;;;18.33;14.00;;;;;9.55;66.74;102548.22;6189368;23;45375;-85
2021/12/19 06:17:03;;;;;;;;;15.33;12.67;;;;;9.41;67.17;102508.66;6190303;23;45430;-85
2021/12/19 06:19:36;;;;;;;;;15.00;13.00;;;;;9.88;66.89;102529.41;6163415;23;45500;-85
2021/12/19 06:22:04;;;;;;;;;12.00;9.33;;;;;9.61;66.74;102527.25;6163071;23;47505;-85
2021/12/19 06:24:30;;;;;;;;;14.33;12.00;;;;;9.62;66.32;102521.13;6163725;23;45307;-85
2021/12/19 06:26:55;;;;;;;;;10.00;9.33;;;;;9.66;66.64;102531.06;6164704;23;45356;-84
2021/12/19 06:29:27;;;;;;;;;10.33;10.33;;;;;9.74;65.92;102527.00;6191179;23;45263;-85
2021/12/19 06:31:53;;;;;;;;;14.67;13.33;;;;;9.69;66.23;102540.91;6163717;23;46971;-84
2021/12/19 06:34:18;;;;;;;;;16.00;12.00;;;;;9.53;66.21;102510.06;6208318;22;45299;-84
2021/12/19 06:36:45;;;;;;;;;16.00;13.33;;;;;9.72;66.18;102531.34;6221555;22;45272;-85
2021/12/19 06:39:10;;;;;;;;;13.33;12.33;;;;;9.52;66.67;102526.84;6222548;22;45317;-85
2021/12/19 06:41:38;;;;;;;;;16.33;14.33;;;;;9.52;66.41;102535.72;6219997;22;46228;-85
2021/12/19 06:44:05;;;;;;;;;12.00;9.00;;;;;9.54;67.22;102531.38;6193893;22;45315;-85
2021/12/19 06:46:31;;;;;;;;;13.67;11.33;;;;;9.55;67.10;102524.31;6193663;22;45406;-85
2021/12/19 06:48:56;;;;;;;;;18.67;16.00;;;;;9.37;68.84;102530.59;6193896;22;45613;-85
2021/12/19 06:51:22;;;;;;;;;11.67;11.33;;;;;9.30;67.43;102514.28;6195105;22;47083;-84
2021/12/19 06:53:48;;;;;;;;;12.67;9.33;;;;;9.43;67.40;102526.41;6195004;22;45350;-85
2021/12/19 06:56:15;;;;;;;;;19.33;14.33;;;;;9.35;67.23;102526.03;6221783;22;45337;-84
2021/12/19 06:58:40;;;;;;;;;10.67;10.33;;;;;9.37;67.64;102533.25;6196094;22;45738;-84
2021/12/19 07:01:06;;;;;;;;;13.33;10.00;;;;;9.37;67.28;102521.69;6194962;22;47017;-84
2021/12/19 07:03:33;;;;;;;;;12.33;10.33;;;;;9.60;66.96;102536.97;6196196;22;45432;-84
2021/12/19 07:05:59;;;;;;;;;14.00;9.33;;;;;9.43;67.80;102534.38;6197490;22;44815;-83
2021/12/19 07:08:24;;;;;;;;;10.00;7.67;;;;;9.31;67.71;102537.34;6195755;22;45436;-84
2021/12/19 07:10:50;;;;;;;;;9.00;7.00;;;;;9.29;68.25;102541.66;6195028;22;46939;-84
2021/12/19 07:13:20;;;;;;;;;8.33;8.33;;;;;9.24;68.17;102538.81;6196080;22;45724;-85
2021/12/19 07:15:51;;;;;;;;;11.00;11.00;;;;;9.51;67.78;102525.00;6199194;22;45385;-85
2021/12/19 07:18:17;;;;;;;;;11.33;7.67;;;;;9.41;67.56;102521.94;6198032;22;45323;-84
2021/12/19 07:20:43;;;;;;;;;10.00;7.67;;;;;9.55;66.26;102527.91;6224160;22;45362;-84
2021/12/19 07:23:15;;;;;;;;;11.00;11.00;;;;;9.66;66.91;102525.75;6224724;22;45284;-85
2021/12/19 07:25:41;;;;;;;;;13.67;10.00;;;;;9.44;67.06;102515.84;6225186;22;45432;-84
2021/12/19 07:28:09;;;;;;;;;11.67;9.33;;;;;9.64;67.80;102530.06;6195802;22;45285;-84
2021/12/19 07:30:36;;;;;;;;;12.00;11.00;;;;;9.47;67.14;102518.63;6222380;22;45585;-84
2021/12/19 07:33:06;;;;;;;;;10.33;10.33;;;;;9.68;68.53;102521.41;6195530;22;45428;-85
2021/12/19 07:35:36;;;;;;;;;14.00;10.00;;;;;9.52;66.81;102530.41;6191156;23;45676;-85
2021/12/19 07:38:04;;;;;;;;;8.33;8.33;;;;;9.48;66.90;102520.47;6167084;23;45467;-84
2021/12/19 07:40:36;;;;;;;;;10.00;10.00;;;;;9.63;66.31;102530.00;6190837;23;46813;-85
2021/12/19 07:43:08;;;;;;;;;11.33;9.00;;;;;9.59;66.57;102518.31;6167158;23;44836;-84
2021/12/19 07:45:34;;;;;;;;;13.67;9.33;;;;;9.54;66.96;102514.56;6167542;23;45422;-84
2021/12/19 07:47:59;;;;;;;;;9.67;9.67;;;;;9.49;66.20;102524.03;6193062;23;45299;-84
2021/12/19 07:50:26;;;;;;;;;10.00;9.67;;;;;9.52;66.65;102506.50;6194007;22;45349;-84
2021/12/19 07:52:52;;;;;;;;;15.33;14.00;;;;;9.55;66.31;102521.66;6193700;23;45570;-84
2021/12/19 07:55:18;;;;;;;;;17.67;12.00;;;;;9.54;66.06;102519.84;6166987;23;45887;-84
2021/12/19 07:57:43;;;;;;;;;11.00;11.00;;;;;9.57;66.48;102525.28;6194002;23;45380;-84
2021/12/19 08:00:11;;;;;;;;;12.00;10.33;;;;;9.80;65.94;102535.25;6166606;23;47412;-84
2021/12/19 08:02:36;;;;;;;;;18.00;9.33;;;;;9.56;66.23;102520.84;6193768;23;45342;-84
2021/12/19 08:05:03;;;;;;;;;15.67;15.67;;;;;9.61;67.18;102516.63;6192355;23;45287;-85
2021/12/19 08:07:28;;;;;;;;;13.00;10.00;;;;;9.54;66.02;102523.41;6193369;23;45698;-85
2021/12/19 08:10:11;;;;;;;;;10.67;10.33;;;;;9.58;66.13;102511.19;6165915;23;47209;-85
2021/12/19 08:12:38;;;;;;;;;9.33;9.33;;;;;9.54;66.00;102527.84;6191380;23;45346;-84
2021/12/19 08:15:05;;;;;;;;;10.33;10.00;;;;;9.57;66.09;102536.84;6163945;23;45193;-85
2021/12/19 08:17:31;;;;;;;;;17.33;10.33;;;;;9.57;66.52;102528.88;6189729;23;45283;-85
2021/12/19 08:19:57;;;;;;;;;15.00;14.33;;;;;9.65;65.92;102529.22;6162934;23;46735;-85
2021/12/19 08:22:22;;;;;;;;;10.00;10.00;;;;;9.65;65.59;102523.00;6164236;23;45456;-84
2021/12/19 08:24:50;;;;;;;;;17.67;14.67;;;;;9.74;65.98;102529.66;6164605;23;45390;-85
2021/12/19 08:27:15;;;;;;;;;13.33;12.00;;;;;9.77;65.52;102531.53;6191025;23;45587;-85
2021/12/19 08:29:42;;;;;;;;;18.67;15.33;;;;;9.94;65.61;102519.03;6189345;23;47258;-85
2021/12/19 08:32:08;;;;;;;;;11.00;11.00;;;;;9.65;65.29;102518.59;6164247;23;45361;-85
2021/12/19 08:34:35;;;;;;;;;21.33;15.67;;;;;9.64;65.86;102519.44;6187787;23;45676;-85
2021/12/19 08:37:02;;;;;;;;;14.33;11.67;;;;;9.68;65.75;102521.41;6190797;22;45331;-85
2021/12/19 08:39:28;;;;;;;;;19.00;18.33;;;;;9.61;65.54;102511.31;6188971;23;48074;-85
2021/12/19 08:41:55;;;;;;;;;15.00;12.00;;;;;9.68;65.97;102516.09;6187697;23;46250;-84
2021/12/19 08:44:21;;;;;;;;;18.67;14.67;;;;;9.55;65.78;102516.34;6189734;23;44858;-84
2021/12/19 08:46:46;;;;;;;;;16.00;15.00;;;;;9.51;66.31;102503.75;6190377;23;45394;-85
2021/12/19 08:49:12;;;;;;;;;20.67;17.33;;;;;9.66;64.99;102520.44;6189569;23;46939;-84
2021/12/19 08:51:39;;;;;;;;;17.67;12.33;;;;;9.66;65.46;102516.88;6189816;23;45268;-84
2021/12/19 08:54:07;;;;;;;;;15.00;12.67;;;;;9.88;65.30;102511.69;6193615;22;45281;-85
2021/12/19 08:56:33;;;;;;;;;20.67;17.00;;;;;9.78;65.54;102520.09;6194413;22;45708;-84
2021/12/19 08:58:59;;;;;;;;;21.33;18.00;;;;;9.87;65.36;102508.97;6192174;22;45410;-85
2021/12/19 09:01:25;;;;;;;;;16.00;14.33;;;;;9.94;65.27;102505.75;6190343;23;45497;-84
2021/12/19 09:03:51;;;;;;;;;16.00;15.00;;;;;9.91;64.24;102524.22;6190306;23;45261;-85
2021/12/19 09:06:18;;;;;;;;;20.00;19.33;;;;;10.00;64.53;102522.88;6192754;22;45414;-85
2021/12/19 09:08:44;;;;;;;;;9.33;9.33;;;;;9.73;64.71;102518.97;6191336;23;46983;-84
2021/12/19 09:11:10;;;;;;;;;17.00;15.00;;;;;9.65;64.67;102521.25;6192203;23;45447;-84
2021/12/19 09:13:36;;;;;;;;;17.00;16.00;;;;;9.60;65.27;102529.00;6191942;23;45371;-84
2021/12/19 09:16:01;;;;;;;;;11.67;11.67;;;;;9.59;65.00;102532.53;6189344;23;45785;-85
2021/12/19 09:21:50;;;;;;;;;21.67;15.00;;;;;9.57;65.51;102512.94;6191084;23;45288;-85
2021/12/19 09:24:15;;;;;;;;;19.00;13.67;;;;;9.38;65.63;102528.84;6190334;22;45275;-86
2021/12/19 09:26:41;;;;;;;;;19.67;14.00;;;;;9.43;65.52;102537.03;6187675;23;45321;-85
2021/12/19 09:29:07;;;;;;;;;12.67;12.00;;;;;9.52;65.20;102518.88;6188600;23;47999;-85
2021/12/19 09:31:33;;;;;;;;;13.00;13.00;;;;;9.41;65.02;102521.00;6189771;22;45418;-85
2021/12/19 09:33:58;;;;;;;;;23.00;16.67;;;;;9.32;65.14;102521.50;6198976;22;45363;-84
2021/12/19 09:36:24;;;;;;;;;22.00;17.33;;;;;9.30;65.30;102525.81;6194681;22;45324;-84
2021/12/19 09:38:49;;;;;;;;;11.33;7.67;;;;;9.32;65.55;102521.50;6194382;22;47097;-84
2021/12/19 09:41:28;;;;;;;;;11.33;10.00;;;;;9.62;64.98;102521.13;6220582;22;45390;-84
2021/12/19 09:43:58;;;;;;;;;14.00;10.67;;;;;9.50;65.39;102515.25;6193841;22;45286;-85
2021/12/19 09:46:28;;;;;;;;;11.00;9.00;;;;;9.50;65.18;102524.13;6194025;22;45378;-84
2021/12/19 09:48:53;;;;;;;;;21.67;16.00;;;;;9.51;65.12;102514.38;6195551;22;45239;-84
2021/12/19 09:51:19;;;;;;;;;15.00;15.00;;;;;9.70;65.28;102527.69;6197511;22;44751;-84
2021/12/19 09:53:46;;;;;;;;;14.33;11.67;;;;;9.73;64.93;102524.28;6197360;22;45280;-84
2021/12/19 09:56:11;;;;;;;;;13.67;11.67;;;;;9.70;64.86;102519.72;6195545;22;45552;-85
2021/12/19 09:58:39;;;;;;;;;13.33;13.00;;;;;9.66;65.29;102511.56;6194705;22;46555;-85
2021/12/19 10:01:08;;;;;;;;;18.33;15.00;;;;;9.83;65.27;102510.56;6195231;22;45853;-85
2021/12/19 10:03:35;;;;;;;;;12.33;11.00;;;;;9.80;65.00;102511.34;6198211;22;44726;-85
2021/12/19 10:06:13;;;;;;;;;13.00;10.00;;;;;10.20;64.49;102505.16;6196400;22;44734;-85
2021/12/19 10:08:39;;;;;;;;;15.00;12.33;;;;;9.91;64.57;102501.19;6196311;22;48627;-84
2021/12/19 10:11:29;;;;;;;;;22.00;18.67;;;;;10.06;64.62;102494.72;6195661;22;45448;-85
2021/12/19 10:13:54;;;;;;;;;13.00;10.00;;;;;9.93;64.96;102482.66;6195899;22;45375;-84
2021/12/19 10:16:24;;;;;;;;;19.67;19.67;;;;;10.33;64.41;102495.97;6196256;22;45399;-84
2021/12/19 10:18:55;;;;;;;;;27.00;17.00;;;;;10.32;64.23;102493.25;6195882;22;48395;-85
2021/12/19 10:21:23;;;;;;;;;16.00;15.00;;;;;10.18;64.58;102463.41;6195112;22;45295;-84
2021/12/19 10:23:48;;;;;;;;;15.33;11.33;;;;;10.25;64.52;102481.41;6196130;22;45386;-84
2021/12/19 10:26:14;;;;;;;;;11.67;10.67;;;;;10.41;63.84;102473.28;6224227;22;45671;-85
2021/12/19 10:29:00;;;;;;;;;18.33;17.33;;;;;10.56;61.98;102478.38;6197081;22;47066;-85
2021/12/19 10:31:28;;;;;;;;;15.00;13.00;;;;;10.28;62.94;102485.94;6197028;22;45333;-85
2021/12/19 10:33:54;;;;;;;;;15.67;12.00;;;;;10.08;62.69;102482.41;6223098;22;45522;-85
2021/12/19 10:36:20;;;;;;;;;18.33;15.00;;;;;10.09;63.06;102492.22;6195062;22;45661;-85
2021/12/19 10:38:48;;;;;;;;;20.00;18.67;;;;;10.28;62.26;102488.59;6224048;22;45393;-85
2021/12/19 10:41:42;;;;;;;;;19.00;15.67;;;;;10.17;62.78;102480.19;6197077;22;45794;-85
2021/12/19 10:45:29;;;;;;;;;22.00;19.33;;;;;10.02;63.32;102477.78;6193457;22;45707;-85
2021/12/19 10:46:56;;;;;;;;;23.33;21.67;;;;;9.98;62.79;102465.19;6223834;22;45338;-84
2021/12/19 10:49:24;;;;;;;;;22.33;22.33;;;;;10.16;63.41;102463.31;6197378;22;47430;-85
2021/12/19 10:51:50;;;;;;;;;25.00;22.33;;;;;10.19;63.03;102476.72;6198287;22;45446;-84
2021/12/19 10:54:16;;;;;;;;;24.67;22.00;;;;;10.11;62.75;102467.53;6198616;22;44753;-85
2021/12/19 10:56:42;;;;;;;;;23.33;20.00;;;;;10.02;62.89;102446.78;6198083;22;45450;-85
2021/12/19 10:59:14;;;;;;;;;21.67;20.00;;;;;10.39;62.40;102472.31;6196807;22;47054;-85
2021/12/19 11:01:51;;;;;;;;;24.33;18.67;;;;;10.38;62.30;102456.28;6224907;22;45553;-85
2021/12/19 11:04:26;;;;;;;;;24.67;23.00;;;;;10.14;62.28;102458.75;6197120;22;45493;-86
2021/12/19 11:10:28;;;;;;;;;29.33;25.33;;;;;10.49;62.19;102465.63;6222507;22;45311;-86
2021/12/19 11:13:16;;;;;;;;;21.67;18.67;;;;;10.44;61.59;102442.34;6196499;22;45352;-86
2021/12/19 11:15:42;;;;;;;;;15.00;12.33;;;;;10.23;61.40;102453.84;6198540;22;45327;-86
2021/12/19 11:18:08;;;;;;;;;15.67;14.00;;;;;10.27;61.39;102428.31;6224426;22;45318;-86
2021/12/19 11:20:34;;;;;;;;;18.33;15.33;;;;;10.34;62.21;102441.03;6224015;22;45254;-86
2021/12/19 11:23:00;;;;;;;;;15.67;15.67;;;;;10.39;61.78;102435.06;6195963;22;45297;-86
2021/12/19 11:25:26;;;;;;;;;21.67;19.67;;;;;10.52;61.72;102436.53;6197055;22;45271;-85
2021/12/19 11:27:52;;;;;;;;;19.33;19.00;;;;;10.48;61.33;102430.97;6196887;22;45869;-86
2021/12/19 11:30:19;;;;;;;;;18.00;17.50;;;;;10.63;61.08;102430.72;6197317;22;46654;-86
2021/12/19 11:33:03;;;;;;;;;20.00;16.33;;;;;10.85;61.57;102427.19;6224033;22;45436;-86
2021/12/19 11:35:33;;;;;;;;;20.33;16.00;;;;;10.67;61.41;102417.59;6172146;23;45701;-85
2021/12/19 11:38:04;;;;;;;;;23.00;21.00;;;;;10.82;61.36;102401.34;6196112;23;45332;-84
2021/12/19 11:40:36;;;;;;;;;21.67;19.00;;;;;10.81;61.78;102404.84;6167693;23;46821;-84
2021/12/19 11:43:11;;;;;;;;;15.33;14.67;;;;;11.10;61.02;102394.44;6193544;23;45275;-84
2021/12/19 11:45:44;;;;;;;;;27.33;21.00;;;;;10.93;60.27;102399.13;6193673;23;45374;-85
2021/12/19 11:48:26;;;;;;;;;18.67;18.67;;;;;11.23;60.64;102399.38;6191914;23;44689;-84
2021/12/19 11:50:53;;;;;;;;;23.33;19.67;;;;;11.06;60.70;102389.84;6193194;23;45359;-85
2021/12/19 11:53:22;;;;;;;;;21.67;16.00;;;;;11.01;61.07;102387.91;6166433;23;45345;-85
2021/12/19 11:56:11;;;;;;;;;23.33;20.67;;;;;11.21;59.96;102386.00;6165385;23;45755;-85
2021/12/19 11:58:45;;;;;;;;;23.33;17.33;;;;;11.20;60.56;102377.94;6165554;23;45248;-85
2021/12/19 12:01:33;;;;;;;;;26.00;21.00;;;;;11.35;60.60;102381.19;6166763;23;47533;-85
2021/12/19 12:04:14;;;;;;;;;28.33;23.33;;;;;11.40;59.74;102381.38;6166305;23;45688;-84
2021/12/19 12:10:01;;;;;;;;;30.00;25.67;;;;;11.00;60.11;102363.88;6194723;23;45356;-84
2021/12/19 12:12:35;;;;;;;;;26.00;24.00;;;;;10.97;60.74;102364.69;6167625;23;47089;-85
2021/12/19 12:15:05;;;;;;;;;30.33;21.33;;;;;11.06;61.08;102358.78;6167432;23;45291;-85
2021/12/19 12:17:37;;;;;;;;;23.00;22.00;;;;;11.11;60.86;102351.91;6168066;23;45387;-84
2021/12/19 12:20:15;;;;;;;;;27.00;20.67;;;;;11.26;60.78;102351.56;6166978;23;45381;-84
2021/12/19 12:26:24;;;;;;;;;36.33;26.33;;;;;11.33;60.42;102358.00;6192236;23;45347;-85
2021/12/19 12:28:50;;;;;;;;;26.67;22.33;;;;;10.92;60.74;102334.28;6165258;23;45793;-84
2021/12/19 12:31:21;;;;;;;;;26.67;21.00;;;;;10.89;61.06;102343.94;6165995;23;45526;-84
2021/12/19 12:33:47;;;;;;;;;22.33;16.00;;;;;10.80;61.07;102339.16;6195186;22;45935;-84
2021/12/19 12:36:15;;;;;;;;;28.67;25.00;;;;;10.73;61.46;102302.53;6195530;22;45772;-84
2021/12/19 12:38:45;;;;;;;;;35.67;22.00;;;;;10.70;61.59;102318.34;6197180;22;45397;-84
2021/12/19 12:41:26;;;;;;;;;32.33;22.00;;;;;10.75;61.53;102324.78;6196831;22;45666;-85
2021/12/19 12:43:51;;;;;;;;;12.00;8.67;;;;;10.82;61.66;102321.50;6195916;22;48322;-83
2021/12/19 12:46:22;;;;;;;;;25.00;21.00;;;;;10.80;61.58;102316.09;6194811;22;45376;-85